createdAt,value
2019-04-20T00:00:57.799Z,11.47
2019-04-20T00:03:35.284Z,11.37
2019-04-20T00:06:03.593Z,12.00
2019-04-20T00:08:39.154Z,12.43
2019-04-20T00:11:16.321Z,11.47
2019-04-20T00:13:52.928Z,11.83
2019-04-20T00:16:18.990Z,11.17
2019-04-20T00:18:55.420Z,11.50
2019-04-20T00:21:25.102Z,11.70
2019-04-20T00:24:03.016Z,11.70
2019-04-20T00:27:04.767Z,11.27
2019-04-20T00:29:27.259Z,11.13
2019-04-20T00:31:53.868Z,10.90
2019-04-20T00:34:24.161Z,11.60
2019-04-20T00:36:49.747Z,12.53
2019-04-20T00:39:23.658Z,12.10
2019-04-20T00:42:03.785Z,11.90
2019-04-20T00:44:35.936Z,11.17
2019-04-20T00:47:15.572Z,11.17
2019-04-20T00:49:55.114Z,12.13
2019-04-20T00:52:27.647Z,10.63
2019-04-20T00:54:47.314Z,11.40
2019-04-20T00:57:30.503Z,12.43
2019-04-20T01:00:12.547Z,12.30
2019-04-20T01:02:40.721Z,11.60
2019-04-20T01:05:19.618Z,12.13
2019-04-20T01:07:43.260Z,12.63
2019-04-20T01:10:11.038Z,12.20
2019-04-20T01:12:44.471Z,12.47
2019-04-20T01:15:28.068Z,12.63
2019-04-20T01:17:52.429Z,12.27
2019-04-20T01:20:26.338Z,13.00
2019-04-20T01:23:04.780Z,12.87
2019-04-20T01:25:37.860Z,13.17
2019-04-20T01:28:24.223Z,12.17
2019-04-20T01:30:50.886Z,13.07
2019-04-20T01:33:30.367Z,11.90
2019-04-20T01:36:02.819Z,12.93
2019-04-20T01:38:39.905Z,12.57
2019-04-20T01:40:57.184Z,12.90
2019-04-20T01:43:29.448Z,12.97
2019-04-20T01:46:11.189Z,12.13
2019-04-20T01:48:38.206Z,13.60
2019-04-20T01:51:17.676Z,13.67
2019-04-20T01:54:02.131Z,12.73
2019-04-20T01:56:33.903Z,14.00
2019-04-20T01:59:10.282Z,13.13
2019-04-20T02:01:31.032Z,13.80
2019-04-20T02:04:03.209Z,13.30
2019-04-20T02:06:42.567Z,13.70
2019-04-20T02:09:15.201Z,12.47
2019-04-20T02:11:47.368Z,13.77
2019-04-20T02:14:26.812Z,13.77
2019-04-20T02:17:03.170Z,12.83
2019-04-20T02:19:43.112Z,13.40
2019-04-20T02:22:13.745Z,13.13
2019-04-20T02:24:36.992Z,13.30
2019-04-20T02:27:10.254Z,13.63
2019-04-20T02:30:10.481Z,14.10
2019-04-20T02:33:01.505Z,13.67
2019-04-20T02:35:30.128Z,13.90
2019-04-20T02:40:38.865Z,13.60
2019-04-20T02:43:08.073Z,11.93
2019-04-20T02:45:40.423Z,13.97
2019-04-20T02:51:09.974Z,13.67
2019-04-20T02:53:20.339Z,14.33
2019-04-20T02:55:58.005Z,15.20
2019-04-20T02:58:36.365Z,13.13
2019-04-20T03:00:52.361Z,14.00
2019-04-20T03:03:19.491Z,14.13
2019-04-20T03:05:57.725Z,14.07
2019-04-20T03:08:30.522Z,13.80
2019-04-20T03:11:14.674Z,14.57
2019-04-20T03:13:41.371Z,14.47
2019-04-20T03:16:16.708Z,14.93
2019-04-20T03:18:45.570Z,14.93
2019-04-20T03:21:28.953Z,14.40
2019-04-20T03:24:06.455Z,14.97
2019-04-20T03:26:34.012Z,14.57
2019-04-20T03:29:01.125Z,15.13
2019-04-20T03:32:08.416Z,15.23
2019-04-20T03:34:50.456Z,15.37
2019-04-20T03:36:53.232Z,17.70
2019-04-20T03:39:22.160Z,15.33
2019-04-20T03:41:41.828Z,13.53
2019-04-20T03:44:14.142Z,14.50
2019-04-20T03:46:52.212Z,14.50
2019-04-20T03:49:42.528Z,15.40
2019-04-20T03:52:08.882Z,15.33
2019-04-20T03:54:40.797Z,15.70
2019-04-20T03:57:26.543Z,15.50
2019-04-20T03:59:54.818Z,14.33
2019-04-20T04:02:37.955Z,14.83
2019-04-20T04:04:58.992Z,14.47
2019-04-20T04:07:26.865Z,15.37
2019-04-20T04:10:04.701Z,15.23
2019-04-20T04:12:30.762Z,15.27
2019-04-20T04:14:59.840Z,15.30
2019-04-20T04:17:37.406Z,14.93
2019-04-20T04:20:11.640Z,15.43
2019-04-20T04:23:00.135Z,15.93
2019-04-20T04:25:24.997Z,15.40
2019-04-20T04:28:09.896Z,15.13
2019-04-20T04:30:36.539Z,15.87
2019-04-20T04:33:39.926Z,15.33
2019-04-20T04:35:48.329Z,15.57
2019-04-20T04:38:27.177Z,14.90
2019-04-20T04:41:11.245Z,15.10
2019-04-20T04:43:35.890Z,14.53
2019-04-20T04:45:46.934Z,15.07
2019-04-20T04:48:27.438Z,14.87
2019-04-20T04:50:59.923Z,14.73
2019-04-20T04:53:41.705Z,15.40
2019-04-20T04:56:07.186Z,15.47
2019-04-20T04:58:36.282Z,16.00
2019-04-20T05:01:14.558Z,15.60
2019-04-20T05:04:13.070Z,15.00
2019-04-20T05:06:31.774Z,15.37
2019-04-20T05:08:54.841Z,15.50
2019-04-20T05:11:25.740Z,16.17
2019-04-20T05:14:03.334Z,15.07
2019-04-20T05:16:49.945Z,16.70
2019-04-20T05:19:37.061Z,15.80
2019-04-20T05:22:07.313Z,16.07
2019-04-20T05:24:31.988Z,15.13
2019-04-20T05:27:14.663Z,16.50
2019-04-20T05:29:28.213Z,14.90
2019-04-20T05:32:05.527Z,15.93
2019-04-20T05:34:55.349Z,16.10
2019-04-20T05:37:37.857Z,15.97
2019-04-20T05:39:59.392Z,16.50
2019-04-20T05:42:35.889Z,15.80
2019-04-20T05:45:09.076Z,15.47
2019-04-20T05:47:41.098Z,16.00
2019-04-20T05:50:08.249Z,15.60
2019-04-20T05:52:56.166Z,16.33
2019-04-20T05:55:31.879Z,16.70
2019-04-20T05:58:02.089Z,16.97
2019-04-20T06:00:34.635Z,15.80
2019-04-20T06:03:06.022Z,15.93
2019-04-20T06:05:46.004Z,15.17
2019-04-20T06:08:14.891Z,15.33
2019-04-20T06:10:52.121Z,15.27
2019-04-20T06:13:18.661Z,16.03
2019-04-20T06:15:53.831Z,14.23
2019-04-20T06:18:28.879Z,15.27
2019-04-20T06:21:17.245Z,14.73
2019-04-20T06:23:47.703Z,14.20
2019-04-20T06:26:26.762Z,14.83
2019-04-20T06:28:42.911Z,13.87
2019-04-20T06:31:28.470Z,12.87
2019-04-20T06:34:07.547Z,13.30
2019-04-20T06:36:32.157Z,14.23
2019-04-20T06:39:08.312Z,13.17
2019-04-20T06:41:54.267Z,13.60
2019-04-20T06:44:16.389Z,13.83
2019-04-20T06:46:52.443Z,13.67
2019-04-20T06:51:55.386Z,13.60
2019-04-20T06:54:16.414Z,14.50
2019-04-20T06:57:05.851Z,11.80
2019-04-20T06:59:46.795Z,12.40
2019-04-20T07:02:20.233Z,13.10
2019-04-20T07:04:59.932Z,13.00
2019-04-20T07:07:22.702Z,13.00
2019-04-20T07:10:04.468Z,12.40
2019-04-20T07:12:24.558Z,12.73
2019-04-20T07:14:50.959Z,12.30
2019-04-20T07:17:45.530Z,12.03
2019-04-20T07:20:06.000Z,12.40
2019-04-20T07:25:19.353Z,13.60
2019-04-20T07:27:54.047Z,12.60
2019-04-20T07:30:21.838Z,13.33
2019-04-20T07:32:58.192Z,12.53
2019-04-20T07:35:35.618Z,12.57
2019-04-20T07:40:38.286Z,12.13
2019-04-20T07:43:15.000Z,11.37
2019-04-20T07:45:51.738Z,11.43
2019-04-20T07:48:21.163Z,11.60
2019-04-20T07:50:48.664Z,10.93
2019-04-20T07:53:25.347Z,11.97
2019-04-20T07:56:07.260Z,11.60
2019-04-20T07:58:31.664Z,11.93
2019-04-20T08:01:22.520Z,11.40
2019-04-20T08:03:52.594Z,11.40
2019-04-20T08:06:13.618Z,10.80
2019-04-20T08:08:55.235Z,11.57
2019-04-20T08:11:30.327Z,11.60
2019-04-20T08:14:16.311Z,11.70
2019-04-20T08:16:54.120Z,11.30
2019-04-20T08:19:10.223Z,11.70
2019-04-20T08:21:48.588Z,12.03
2019-04-20T08:24:26.084Z,12.40
2019-04-20T08:26:45.076Z,11.30
2019-04-20T08:29:21.652Z,10.73
2019-04-20T08:32:08.782Z,10.97
2019-04-20T08:34:43.026Z,10.37
2019-04-20T08:37:11.624Z,10.90
2019-04-20T08:39:58.327Z,10.67
2019-04-20T08:42:22.367Z,10.30
2019-04-20T08:45:23.684Z,10.03
2019-04-20T08:47:39.499Z,10.70
2019-04-20T08:50:15.051Z,10.60
2019-04-20T08:52:55.423Z,10.63
2019-04-20T08:55:12.423Z,10.80
2019-04-20T08:57:27.209Z,10.73
2019-04-20T09:00:02.638Z,10.57
2019-04-20T09:02:36.927Z,11.57
2019-04-20T09:05:28.203Z,10.90
2019-04-20T09:07:57.782Z,11.27
2019-04-20T09:10:39.222Z,10.87
2019-04-20T09:13:05.806Z,11.63
2019-04-20T09:15:27.830Z,10.20
2019-04-20T09:18:03.820Z,9.83
2019-04-20T09:20:44.647Z,10.23
2019-04-20T09:23:24.634Z,11.03
2019-04-20T09:28:27.364Z,11.33
2019-04-20T09:31:09.518Z,10.53
2019-04-20T09:33:44.093Z,10.83
2019-04-20T09:36:15.295Z,10.90
2019-04-20T09:38:44.350Z,10.80
2019-04-20T09:41:35.315Z,11.40
2019-04-20T09:43:41.079Z,11.00
2019-04-20T09:46:13.802Z,10.27
2019-04-20T09:48:51.333Z,10.33
2019-04-20T09:51:40.169Z,10.70
2019-04-20T09:54:04.314Z,10.10
2019-04-20T09:56:46.316Z,11.10
2019-04-20T09:59:23.102Z,11.20
2019-04-20T10:01:44.848Z,10.23
2019-04-20T10:04:11.147Z,9.57
2019-04-20T10:06:43.647Z,10.87
2019-04-20T10:09:20.434Z,11.53
2019-04-20T10:11:50.669Z,12.70
2019-04-20T10:14:24.725Z,11.60
2019-04-20T10:16:57.984Z,11.30
2019-04-20T10:19:34.131Z,12.03
2019-04-20T10:22:04.662Z,12.47
2019-04-20T10:24:37.201Z,13.17
2019-04-20T10:27:10.535Z,12.50
2019-04-20T10:29:43.874Z,11.87
2019-04-20T10:32:17.883Z,11.80
2019-04-20T10:34:50.683Z,11.60
2019-04-20T10:37:23.853Z,11.07
2019-04-20T10:39:56.600Z,9.60
2019-04-20T10:42:30.153Z,10.40
2019-04-20T10:45:04.147Z,9.73
2019-04-20T10:47:37.159Z,9.10
2019-04-20T10:50:09.494Z,8.90
2019-04-20T10:52:41.946Z,9.03
2019-04-20T10:55:14.725Z,8.30
2019-04-20T10:57:47.176Z,8.53
2019-04-20T11:00:19.719Z,7.40
2019-04-20T11:02:52.513Z,7.03
2019-04-20T11:05:24.907Z,7.33
2019-04-20T11:07:57.244Z,6.70
2019-04-20T11:10:46.167Z,7.83
2019-04-20T11:13:03.786Z,7.27
2019-04-20T11:15:38.744Z,6.73
2019-04-20T11:18:11.395Z,6.70
2019-04-20T11:20:43.764Z,6.77
2019-04-20T11:23:16.180Z,6.13
2019-04-20T11:25:50.491Z,6.20
2019-04-20T11:28:24.041Z,6.27
2019-04-20T11:30:56.409Z,6.27
2019-04-20T11:33:29.943Z,6.77
2019-04-20T11:36:03.372Z,6.73
2019-04-20T11:38:35.605Z,6.50
2019-04-20T11:41:17.733Z,6.30
2019-04-20T11:43:42.052Z,7.10
2019-04-20T11:46:14.578Z,6.50
2019-04-20T11:48:47.676Z,7.00
2019-04-20T11:51:21.510Z,6.80
2019-04-20T11:53:54.605Z,6.37
2019-04-20T11:56:34.411Z,6.95
2019-04-20T11:59:03.029Z,6.22
2019-04-20T12:01:44.081Z,6.92
2019-04-20T12:04:24.805Z,6.97
2019-04-20T12:06:46.614Z,7.15
2019-04-20T12:09:19.704Z,7.45
2019-04-20T12:12:06.123Z,7.30
2019-04-20T12:14:28.446Z,7.30
2019-04-20T12:17:01.825Z,7.42
2019-04-20T12:19:37.831Z,6.60
2019-04-20T12:22:11.863Z,6.85
2019-04-20T12:24:45.971Z,6.67
2019-04-20T12:27:18.783Z,7.22
2019-04-20T12:29:54.044Z,7.30
2019-04-20T12:32:34.202Z,7.17
2019-04-20T12:35:02.583Z,7.20
2019-04-20T12:37:36.894Z,7.13
2019-04-20T12:40:10.168Z,6.28
2019-04-20T12:42:44.255Z,10.05
2019-04-20T12:45:17.748Z,7.55
2019-04-20T12:47:51.568Z,7.43
2019-04-20T12:50:25.592Z,6.70
2019-04-20T12:52:58.837Z,6.90
2019-04-20T12:55:32.590Z,7.30
2019-04-20T12:58:06.478Z,7.57
2019-04-20T13:00:39.458Z,7.20
2019-04-20T13:03:12.114Z,7.43
2019-04-20T13:05:45.998Z,7.53
2019-04-20T13:08:28.471Z,7.87
2019-04-20T13:10:54.887Z,7.80
2019-04-20T13:13:30.455Z,7.93
2019-04-20T13:16:04.489Z,8.17
2019-04-20T13:18:37.220Z,8.00
2019-04-20T13:21:10.936Z,9.07
2019-04-20T13:23:44.928Z,7.83
2019-04-20T13:26:19.192Z,7.73
2019-04-20T13:28:52.902Z,7.73
2019-04-20T13:31:26.181Z,6.77
2019-04-20T13:33:59.230Z,7.83
2019-04-20T13:36:32.534Z,7.00
2019-04-20T13:39:06.043Z,7.37
2019-04-20T13:41:40.017Z,7.20
2019-04-20T13:44:13.746Z,7.33
2019-04-20T13:46:47.096Z,6.93
2019-04-20T13:49:20.800Z,6.50
2019-04-20T13:51:54.652Z,6.80
2019-04-20T13:54:28.577Z,6.70
2019-04-20T13:57:02.144Z,6.97
2019-04-20T13:59:35.171Z,6.67
2019-04-20T14:02:08.889Z,6.70
2019-04-20T14:04:41.763Z,6.70
2019-04-20T14:07:15.871Z,7.20
2019-04-20T14:09:48.891Z,7.08
2019-04-20T14:12:28.347Z,6.92
2019-04-20T14:14:57.292Z,8.35
2019-04-20T14:17:31.164Z,7.45
2019-04-20T14:20:09.803Z,6.60
2019-04-20T14:22:39.006Z,6.90
2019-04-20T14:25:13.222Z,6.72
2019-04-20T14:27:46.670Z,6.87
2019-04-20T14:30:19.755Z,7.37
2019-04-20T14:32:52.890Z,8.65
2019-04-20T14:35:27.066Z,6.92
2019-04-20T14:38:01.585Z,7.28
2019-04-20T14:40:34.741Z,7.25
2019-04-20T14:43:08.907Z,8.10
2019-04-20T14:45:42.835Z,7.80
2019-04-20T14:48:16.890Z,8.45
2019-04-20T14:50:55.954Z,7.90
2019-04-20T14:53:29.580Z,8.08
2019-04-20T14:56:07.429Z,7.53
2019-04-20T14:58:42.163Z,7.55
2019-04-20T15:01:16.416Z,8.83
2019-04-20T15:03:57.186Z,9.45
2019-04-20T15:06:25.409Z,9.35
2019-04-20T15:08:58.905Z,9.03
2019-04-20T15:11:32.629Z,9.03
2019-04-20T15:14:06.833Z,8.75
2019-04-20T15:16:40.532Z,8.85
2019-04-20T15:19:13.789Z,8.65
2019-04-20T15:21:49.629Z,8.70
2019-04-20T15:24:23.832Z,8.90
2019-04-20T15:26:58.312Z,8.83
2019-04-20T15:29:32.575Z,8.83
2019-04-20T15:32:06.427Z,8.65
2019-04-20T15:34:39.470Z,8.98
2019-04-20T15:37:14.041Z,8.78
2019-04-20T15:39:47.515Z,9.40
2019-04-20T15:42:21.234Z,9.15
2019-04-20T15:44:57.679Z,9.45
2019-04-20T15:47:31.973Z,8.48
2019-04-20T15:50:05.420Z,8.38
2019-04-20T15:52:44.591Z,8.08
2019-04-20T15:55:22.640Z,7.58
2019-04-20T15:57:48.244Z,7.78
2019-04-20T16:00:22.544Z,8.13
2019-04-20T16:02:56.854Z,7.55
2019-04-20T16:05:30.412Z,7.87
2019-04-20T16:08:05.350Z,7.40
2019-04-20T16:10:39.190Z,7.10
2019-04-20T16:13:20.494Z,7.12
2019-04-20T16:15:47.638Z,7.33
2019-04-20T16:18:22.952Z,7.55
2019-04-20T16:21:03.580Z,8.35
2019-04-20T16:23:30.676Z,6.75
2019-04-20T16:26:03.806Z,6.85
2019-04-20T16:28:37.559Z,7.42
2019-04-20T16:31:13.653Z,7.70
2019-04-20T16:33:46.529Z,7.22
2019-04-20T16:36:20.626Z,6.45
2019-04-20T16:38:55.312Z,7.42
2019-04-20T16:41:28.490Z,6.60
2019-04-20T16:44:02.889Z,6.78
2019-04-20T16:46:36.290Z,7.28
2019-04-20T16:49:10.783Z,8.50
2019-04-20T16:51:45.089Z,7.72
2019-04-20T16:54:18.053Z,13.85
2019-04-20T16:56:51.113Z,8.38
2019-04-20T16:59:24.759Z,7.35
2019-04-20T17:01:58.264Z,7.42
2019-04-20T17:04:33.384Z,7.87
2019-04-20T17:07:06.273Z,7.22
2019-04-20T17:09:39.867Z,8.50
2019-04-20T17:12:12.864Z,8.50
2019-04-20T17:14:45.849Z,7.35
2019-04-20T17:17:19.715Z,7.75
2019-04-20T17:19:53.488Z,8.70
2019-04-20T17:22:26.113Z,8.30
2019-04-20T17:24:58.674Z,7.23
2019-04-20T17:27:31.007Z,7.80
2019-04-20T17:30:03.373Z,7.80
2019-04-20T17:32:37.170Z,7.87
2019-04-20T17:35:20.837Z,8.27
2019-04-20T17:37:47.019Z,8.03
2019-04-20T17:40:39.825Z,7.23
2019-04-20T17:43:02.641Z,8.23
2019-04-20T17:45:38.876Z,8.03
2019-04-20T17:48:16.431Z,7.37
2019-04-20T17:50:54.319Z,7.77
2019-04-20T17:53:27.817Z,7.70
2019-04-20T17:55:45.411Z,7.03
2019-04-20T17:58:21.953Z,6.43
2019-04-20T18:00:53.213Z,6.60
2019-04-20T18:04:00.311Z,7.30
2019-04-20T18:06:19.893Z,8.27
2019-04-20T18:08:50.574Z,6.97
2019-04-20T18:11:15.213Z,9.30
2019-04-20T18:13:46.139Z,6.47
2019-04-20T18:16:40.340Z,7.03
2019-04-20T18:19:00.399Z,6.43
2019-04-20T18:21:24.983Z,6.07
2019-04-20T18:23:58.263Z,7.73
2019-04-20T18:26:48.159Z,6.77
2019-04-20T18:29:25.780Z,6.53
2019-04-20T18:31:41.787Z,6.13
2019-04-20T18:34:18.392Z,6.70
2019-04-20T18:36:50.819Z,6.03
2019-04-20T18:39:29.245Z,6.93
2019-04-20T18:42:08.206Z,5.87
2019-04-20T18:44:54.203Z,6.43
2019-04-20T18:47:23.626Z,6.60
2019-04-20T18:49:50.464Z,6.30
2019-04-20T18:52:15.756Z,6.00
2019-04-20T18:54:51.991Z,6.40
2019-04-20T18:57:26.941Z,6.97
2019-04-20T18:59:58.818Z,5.97
2019-04-20T19:02:35.450Z,6.23
2019-04-20T19:05:07.299Z,6.07
2019-04-20T19:07:51.653Z,6.60
2019-04-20T19:10:24.808Z,6.23
2019-04-20T19:12:56.455Z,5.83
2019-04-20T19:15:44.178Z,6.27
2019-04-20T19:18:10.118Z,5.90
2019-04-20T19:20:32.919Z,6.70
2019-04-20T19:23:06.326Z,6.20
2019-04-20T19:25:40.972Z,6.27
2019-04-20T19:28:14.538Z,7.07
2019-04-20T19:31:01.799Z,6.37
2019-04-20T19:33:37.709Z,7.73
2019-04-20T19:36:12.131Z,6.87
2019-04-20T19:38:47.774Z,7.10
2019-04-20T19:41:19.011Z,7.10
2019-04-20T19:43:48.910Z,6.03
2019-04-20T19:46:44.171Z,7.27
2019-04-20T19:48:55.931Z,7.67
2019-04-20T19:51:40.854Z,6.93
2019-04-20T19:54:18.006Z,7.30
2019-04-20T19:56:45.182Z,7.87
2019-04-20T19:59:16.078Z,7.50
2019-04-20T20:01:37.999Z,8.60
2019-04-20T20:04:11.847Z,7.90
2019-04-20T20:06:50.579Z,9.73
2019-04-20T20:09:20.051Z,9.03
2019-04-20T20:11:56.093Z,8.63
2019-04-20T20:14:34.312Z,8.20
2019-04-20T20:17:19.776Z,9.20
2019-04-20T20:20:05.350Z,9.10
2019-04-20T20:22:19.629Z,9.10
2019-04-20T20:24:43.158Z,10.53
2019-04-20T20:27:26.956Z,10.03
2019-04-20T20:30:00.893Z,10.27
2019-04-20T20:32:39.124Z,10.33
2019-04-20T20:35:05.577Z,10.77
2019-04-20T20:37:40.259Z,10.03
2019-04-20T20:40:16.057Z,10.87
2019-04-20T20:42:52.626Z,10.23
2019-04-20T20:45:22.709Z,10.97
2019-04-20T20:48:09.195Z,10.53
2019-04-20T20:50:42.692Z,10.60
2019-04-20T20:53:10.350Z,10.33
2019-04-20T20:55:38.307Z,10.77
2019-04-20T20:58:11.399Z,10.50
2019-04-20T21:00:53.324Z,10.87
2019-04-20T21:03:22.257Z,11.43
2019-04-20T21:05:49.484Z,10.80
2019-04-20T21:08:22.020Z,11.30
2019-04-20T21:10:54.730Z,11.90
2019-04-20T21:13:34.525Z,11.63
2019-04-20T21:16:07.178Z,11.40
2019-04-20T21:18:52.530Z,11.87
2019-04-20T21:21:21.882Z,12.77
2019-04-20T21:23:53.157Z,11.33
2019-04-20T21:26:25.022Z,11.70
2019-04-20T21:28:52.237Z,11.63
2019-04-20T21:31:27.867Z,11.23
2019-04-20T21:34:02.847Z,12.37
2019-04-20T21:36:34.579Z,11.50
2019-04-20T21:39:16.172Z,11.80
2019-04-20T21:41:51.295Z,12.67
2019-04-20T21:44:24.428Z,12.40
2019-04-20T21:46:54.556Z,11.93
2019-04-20T21:49:38.751Z,12.90
2019-04-20T21:52:03.595Z,11.80
2019-04-20T21:54:34.253Z,10.90
2019-04-20T21:57:09.510Z,11.97
2019-04-20T21:59:45.022Z,12.03
2019-04-20T22:02:21.677Z,12.90
2019-04-20T22:04:49.301Z,12.17
2019-04-20T22:07:22.819Z,12.07
2019-04-20T22:09:56.806Z,13.10
2019-04-20T22:12:35.880Z,12.13
2019-04-20T22:15:17.058Z,12.93
2019-04-20T22:17:41.541Z,12.23
2019-04-20T22:20:23.282Z,12.00
2019-04-20T22:23:00.468Z,13.10
2019-04-20T22:25:37.412Z,12.57
2019-04-20T22:27:59.002Z,12.43
2019-04-20T22:30:30.506Z,13.93
2019-04-20T22:33:03.928Z,14.03
2019-04-20T22:35:47.886Z,12.57
2019-04-20T22:38:13.879Z,13.13
2019-04-20T22:40:46.815Z,13.53
2019-04-20T22:43:26.113Z,12.83
2019-04-20T22:45:55.341Z,13.33
2019-04-20T22:48:29.096Z,13.60
2019-04-20T22:51:19.688Z,14.17
2019-04-20T22:53:48.609Z,13.93
2019-04-20T22:56:28.411Z,14.77
2019-04-20T22:58:55.630Z,13.70
2019-04-20T23:01:29.922Z,13.97
2019-04-20T23:03:52.702Z,14.77
2019-04-20T23:06:35.418Z,13.63
2019-04-20T23:09:04.825Z,15.63
2019-04-20T23:11:37.148Z,14.87
2019-04-20T23:14:10.827Z,15.50
2019-04-20T23:16:48.446Z,15.10
2019-04-20T23:19:30.032Z,14.50
2019-04-20T23:21:57.519Z,14.50
2019-04-20T23:24:26.942Z,15.97
2019-04-20T23:26:59.584Z,15.90
2019-04-20T23:29:37.660Z,16.00
2019-04-20T23:32:09.925Z,16.60
2019-04-20T23:34:40.924Z,16.07
2019-04-20T23:37:17.024Z,16.37
2019-04-20T23:39:50.876Z,16.33
2019-04-20T23:42:21.950Z,16.43
2019-04-20T23:44:57.690Z,16.67
2019-04-20T23:47:28.248Z,16.70
2019-04-20T23:50:15.131Z,17.27
2019-04-20T23:52:53.917Z,18.13
2019-04-20T23:55:12.048Z,18.00
2019-04-20T23:57:46.088Z,17.63
